Terminal Aerodrome Forecast
Issued by NWS Duluth, MN

Home | Current Version | Previous Version | Text Only | Print | Product List | Glossary On
Versions: 1 2 3 4 5 6 7 8 9 10 11 12 13 14 15 16 17 18 19 20 21 22 23
000
FTUS43 KDLH 192300
TAFINL
TAF
KINL 192337Z 2000/2024 VRB05KT P6SM SCT035
     FM200200 VRB02KT P6SM SCT050 BKN100
     FM200700 00000KT 5SM BR SCT007 BKN015
     FM201000 00000KT 2SM BR SCT004 OVC007
     FM201400 12005KT P6SM SCT015=

USA.gov is the U.S. government's official web portal to all federal, state and local government web resources and services.